sensor_id;sensor_type;location;lat;lon;timestamp;temperature;humidity
5172;DHT22;2605;49.770;9.868;2022-11-20T00:00:28;1.70;99.90
5172;DHT22;2605;49.770;9.868;2022-11-20T00:02:54;1.70;99.90
5172;DHT22;2605;49.770;9.868;2022-11-20T00:05:19;1.80;99.90
5172;DHT22;2605;49.770;9.868;2022-11-20T00:07:46;1.70;99.90
5172;DHT22;2605;49.770;9.868;2022-11-20T00:10:11;1.80;99.90
5172;DHT22;2605;49.770;9.868;2022-11-20T00:12:37;1.80;99.90
5172;DHT22;2605;49.770;9.868;2022-11-20T00:15:03;1.90;99.90
5172;DHT22;2605;49.770;9.868;2022-11-20T00:17:29;1.90;99.90
5172;DHT22;2605;49.770;9.868;2022-11-20T00:19:54;1.90;99.90
5172;DHT22;2605;49.770;9.868;2022-11-20T00:22:20;1.90;99.90
5172;DHT22;2605;49.770;9.868;2022-11-20T00:24:45;2.00;99.90
5172;DHT22;2605;49.770;9.868;2022-11-20T00:27:11;1.90;99.90
5172;DHT22;2605;49.770;9.868;2022-11-20T00:29:36;1.90;99.90
5172;DHT22;2605;49.770;9.868;2022-11-20T00:32:01;1.90;99.90
5172;DHT22;2605;49.770;9.868;2022-11-20T00:34:27;1.90;99.90
5172;DHT22;2605;49.770;9.868;2022-11-20T00:36:52;1.80;99.90
5172;DHT22;2605;49.770;9.868;2022-11-20T00:39:18;1.70;99.90
5172;DHT22;2605;49.770;9.868;2022-11-20T00:41:43;1.50;99.90
5172;DHT22;2605;49.770;9.868;2022-11-20T00:44:09;1.50;99.90
5172;DHT22;2605;49.770;9.868;2022-11-20T00:46:34;1.50;99.90
5172;DHT22;2605;49.770;9.868;2022-11-20T00:49:00;1.60;99.90
5172;DHT22;2605;49.770;9.868;2022-11-20T00:51:27;1.70;99.90
5172;DHT22;2605;49.770;9.868;2022-11-20T00:53:55;1.70;99.90
5172;DHT22;2605;49.770;9.868;2022-11-20T00:56:21;1.70;99.90
5172;DHT22;2605;49.770;9.868;2022-11-20T00:58:48;1.70;99.90
5172;DHT22;2605;49.770;9.868;2022-11-20T01:01:19;1.80;99.90
5172;DHT22;2605;49.770;9.868;2022-11-20T01:03:47;1.70;99.90
5172;DHT22;2605;49.770;9.868;2022-11-20T01:08:43;1.70;99.90
5172;DHT22;2605;49.770;9.868;2022-11-20T01:11:15;1.60;99.90
5172;DHT22;2605;49.770;9.868;2022-11-20T01:13:41;1.70;99.90
5172;DHT22;2605;49.770;9.868;2022-11-20T01:16:13;1.70;99.90
5172;DHT22;2605;49.770;9.868;2022-11-20T01:18:40;1.60;99.90
5172;DHT22;2605;49.770;9.868;2022-11-20T01:21:08;1.60;99.90
5172;DHT22;2605;49.770;9.868;2022-11-20T01:23:36;1.60;99.90
5172;DHT22;2605;49.770;9.868;2022-11-20T01:26:07;1.70;99.90
5172;DHT22;2605;49.770;9.868;2022-11-20T01:28:33;1.70;99.90
5172;DHT22;2605;49.770;9.868;2022-11-20T01:31:00;1.70;99.90
5172;DHT22;2605;49.770;9.868;2022-11-20T01:33:26;1.80;99.90
5172;DHT22;2605;49.770;9.868;2022-11-20T01:35:52;1.80;99.90
5172;DHT22;2605;49.770;9.868;2022-11-20T01:38:19;1.80;99.90
5172;DHT22;2605;49.770;9.868;2022-11-20T01:40:54;1.80;99.90
5172;DHT22;2605;49.770;9.868;2022-11-20T01:43:21;1.90;99.90
5172;DHT22;2605;49.770;9.868;2022-11-20T01:45:57;1.80;99.90
5172;DHT22;2605;49.770;9.868;2022-11-20T01:48:26;1.80;99.90
5172;DHT22;2605;49.770;9.868;2022-11-20T01:50:53;1.80;99.90
5172;DHT22;2605;49.770;9.868;2022-11-20T01:53:22;1.80;99.90
5172;DHT22;2605;49.770;9.868;2022-11-20T01:55:52;1.80;99.90
5172;DHT22;2605;49.770;9.868;2022-11-20T01:58:21;1.80;99.90
5172;DHT22;2605;49.770;9.868;2022-11-20T02:00:48;1.80;99.90
5172;DHT22;2605;49.770;9.868;2022-11-20T02:03:17;1.90;99.90
5172;DHT22;2605;49.770;9.868;2022-11-20T02:05:57;1.90;99.90
5172;DHT22;2605;49.770;9.868;2022-11-20T02:08:25;1.90;99.90
5172;DHT22;2605;49.770;9.868;2022-11-20T02:10:51;1.90;99.90
5172;DHT22;2605;49.770;9.868;2022-11-20T02:13:16;1.90;99.90
5172;DHT22;2605;49.770;9.868;2022-11-20T02:16:01;1.90;99.90
5172;DHT22;2605;49.770;9.868;2022-11-20T02:18:27;1.90;99.90
5172;DHT22;2605;49.770;9.868;2022-11-20T02:21:01;1.90;99.90
5172;DHT22;2605;49.770;9.868;2022-11-20T02:23:36;1.80;99.90
5172;DHT22;2605;49.770;9.868;2022-11-20T02:26:05;1.70;99.90
5172;DHT22;2605;49.770;9.868;2022-11-20T02:28:32;1.70;99.90
5172;DHT22;2605;49.770;9.868;2022-11-20T02:30:58;1.70;99.90
5172;DHT22;2605;49.770;9.868;2022-11-20T02:33:23;1.80;99.90
5172;DHT22;2605;49.770;9.868;2022-11-20T02:35:49;1.80;99.90
5172;DHT22;2605;49.770;9.868;2022-11-20T02:38:15;1.80;99.90
5172;DHT22;2605;49.770;9.868;2022-11-20T02:40:41;1.80;99.90
5172;DHT22;2605;49.770;9.868;2022-11-20T02:43:07;1.80;99.90
5172;DHT22;2605;49.770;9.868;2022-11-20T02:45:32;1.90;99.90
5172;DHT22;2605;49.770;9.868;2022-11-20T02:47:58;1.90;99.90
5172;DHT22;2605;49.770;9.868;2022-11-20T02:50:24;1.90;99.90
5172;DHT22;2605;49.770;9.868;2022-11-20T02:52:49;1.90;99.90
5172;DHT22;2605;49.770;9.868;2022-11-20T02:55:15;1.90;99.90
5172;DHT22;2605;49.770;9.868;2022-11-20T02:57:40;1.90;99.90
5172;DHT22;2605;49.770;9.868;2022-11-20T03:00:06;1.90;99.90
5172;DHT22;2605;49.770;9.868;2022-11-20T03:02:32;1.80;99.90
5172;DHT22;2605;49.770;9.868;2022-11-20T03:04:58;1.90;99.90
5172;DHT22;2605;49.770;9.868;2022-11-20T03:07:24;1.90;99.90
5172;DHT22;2605;49.770;9.868;2022-11-20T03:09:49;1.90;99.90
5172;DHT22;2605;49.770;9.868;2022-11-20T03:12:15;2.00;99.90
5172;DHT22;2605;49.770;9.868;2022-11-20T03:14:40;2.00;99.90
5172;DHT22;2605;49.770;9.868;2022-11-20T03:17:06;1.90;99.90
5172;DHT22;2605;49.770;9.868;2022-11-20T03:19:31;1.90;99.90
5172;DHT22;2605;49.770;9.868;2022-11-20T03:21:57;1.90;99.90
5172;DHT22;2605;49.770;9.868;2022-11-20T03:24:22;1.80;99.90
5172;DHT22;2605;49.770;9.868;2022-11-20T03:26:48;1.60;99.90
5172;DHT22;2605;49.770;9.868;2022-11-20T03:29:14;1.50;99.90
5172;DHT22;2605;49.770;9.868;2022-11-20T03:31:40;1.50;99.90
5172;DHT22;2605;49.770;9.868;2022-11-20T03:34:06;1.50;99.90
5172;DHT22;2605;49.770;9.868;2022-11-20T03:36:33;1.50;99.90
5172;DHT22;2605;49.770;9.868;2022-11-20T03:38:59;1.60;99.90
5172;DHT22;2605;49.770;9.868;2022-11-20T03:41:26;1.60;99.90
5172;DHT22;2605;49.770;9.868;2022-11-20T03:43:58;1.60;99.90
5172;DHT22;2605;49.770;9.868;2022-11-20T03:46:24;1.60;99.90
5172;DHT22;2605;49.770;9.868;2022-11-20T03:48:51;1.60;99.90
5172;DHT22;2605;49.770;9.868;2022-11-20T03:51:24;1.60;99.90
5172;DHT22;2605;49.770;9.868;2022-11-20T03:53:51;1.60;99.90
5172;DHT22;2605;49.770;9.868;2022-11-20T03:56:19;1.60;99.90
5172;DHT22;2605;49.770;9.868;2022-11-20T03:58:45;1.60;99.90
5172;DHT22;2605;49.770;9.868;2022-11-20T04:01:20;1.60;99.90
5172;DHT22;2605;49.770;9.868;2022-11-20T04:03:46;1.50;99.90
5172;DHT22;2605;49.770;9.868;2022-11-20T04:06:18;1.50;99.90
5172;DHT22;2605;49.770;9.868;2022-11-20T04:08:45;1.70;99.90
5172;DHT22;2605;49.770;9.868;2022-11-20T04:11:16;1.50;99.90
5172;DHT22;2605;49.770;9.868;2022-11-20T04:13:45;1.50;99.90
5172;DHT22;2605;49.770;9.868;2022-11-20T04:16:11;1.50;99.90
5172;DHT22;2605;49.770;9.868;2022-11-20T04:18:37;1.60;99.90
5172;DHT22;2605;49.770;9.868;2022-11-20T04:21:03;1.60;99.90
5172;DHT22;2605;49.770;9.868;2022-11-20T04:23:29;1.50;99.90
5172;DHT22;2605;49.770;9.868;2022-11-20T04:26:00;1.60;99.90
5172;DHT22;2605;49.770;9.868;2022-11-20T04:28:25;1.60;99.90
5172;DHT22;2605;49.770;9.868;2022-11-20T04:30:51;1.70;99.90
5172;DHT22;2605;49.770;9.868;2022-11-20T04:33:16;1.60;99.90
5172;DHT22;2605;49.770;9.868;2022-11-20T04:35:42;1.60;99.90
5172;DHT22;2605;49.770;9.868;2022-11-20T04:38:08;1.70;99.90
5172;DHT22;2605;49.770;9.868;2022-11-20T04:40:33;1.70;99.90
5172;DHT22;2605;49.770;9.868;2022-11-20T04:42:59;1.70;99.90
5172;DHT22;2605;49.770;9.868;2022-11-20T04:45:25;1.70;99.90
5172;DHT22;2605;49.770;9.868;2022-11-20T04:47:50;1.70;99.90
5172;DHT22;2605;49.770;9.868;2022-11-20T04:50:16;1.70;99.90
5172;DHT22;2605;49.770;9.868;2022-11-20T04:52:41;1.70;99.90
5172;DHT22;2605;49.770;9.868;2022-11-20T04:55:07;1.70;99.90
5172;DHT22;2605;49.770;9.868;2022-11-20T04:57:33;1.70;99.90
5172;DHT22;2605;49.770;9.868;2022-11-20T04:59:58;1.70;99.90
5172;DHT22;2605;49.770;9.868;2022-11-20T05:02:24;1.80;99.90
5172;DHT22;2605;49.770;9.868;2022-11-20T05:04:49;1.80;99.90
5172;DHT22;2605;49.770;9.868;2022-11-20T05:07:15;1.80;99.90
5172;DHT22;2605;49.770;9.868;2022-11-20T05:09:40;1.80;99.90
5172;DHT22;2605;49.770;9.868;2022-11-20T05:12:07;1.80;99.90
5172;DHT22;2605;49.770;9.868;2022-11-20T05:14:33;1.80;99.90
5172;DHT22;2605;49.770;9.868;2022-11-20T05:16:59;1.80;99.90
5172;DHT22;2605;49.770;9.868;2022-11-20T05:19:24;1.80;99.90
5172;DHT22;2605;49.770;9.868;2022-11-20T05:21:50;1.80;99.90
5172;DHT22;2605;49.770;9.868;2022-11-20T05:24:15;1.80;99.90
5172;DHT22;2605;49.770;9.868;2022-11-20T05:26:40;1.80;99.90
5172;DHT22;2605;49.770;9.868;2022-11-20T05:29:06;1.90;99.90
5172;DHT22;2605;49.770;9.868;2022-11-20T05:31:32;1.90;99.90
5172;DHT22;2605;49.770;9.868;2022-11-20T05:33:57;1.90;99.90
5172;DHT22;2605;49.770;9.868;2022-11-20T05:36:23;1.90;99.90
5172;DHT22;2605;49.770;9.868;2022-11-20T05:38:48;1.90;99.90
5172;DHT22;2605;49.770;9.868;2022-11-20T05:41:16;1.80;99.90
5172;DHT22;2605;49.770;9.868;2022-11-20T05:43:44;1.80;99.90
5172;DHT22;2605;49.770;9.868;2022-11-20T05:46:12;1.80;99.90
5172;DHT22;2605;49.770;9.868;2022-11-20T05:48:42;1.80;99.90
5172;DHT22;2605;49.770;9.868;2022-11-20T05:51:10;1.80;99.90
5172;DHT22;2605;49.770;9.868;2022-11-20T05:53:36;1.80;99.90
5172;DHT22;2605;49.770;9.868;2022-11-20T05:56:10;1.80;99.90
5172;DHT22;2605;49.770;9.868;2022-11-20T05:58:36;1.80;99.90
5172;DHT22;2605;49.770;9.868;2022-11-20T06:01:09;1.70;99.90
5172;DHT22;2605;49.770;9.868;2022-11-20T06:03:35;1.70;99.90
5172;DHT22;2605;49.770;9.868;2022-11-20T06:06:03;1.70;99.90
5172;DHT22;2605;49.770;9.868;2022-11-20T06:08:29;1.70;99.90
5172;DHT22;2605;49.770;9.868;2022-11-20T06:10:55;1.70;99.90
5172;DHT22;2605;49.770;9.868;2022-11-20T06:13:20;1.60;99.90
5172;DHT22;2605;49.770;9.868;2022-11-20T06:15:50;1.60;99.90
5172;DHT22;2605;49.770;9.868;2022-11-20T06:18:15;1.60;99.90
5172;DHT22;2605;49.770;9.868;2022-11-20T06:20:41;1.60;99.90
5172;DHT22;2605;49.770;9.868;2022-11-20T06:23:06;1.70;99.90
5172;DHT22;2605;49.770;9.868;2022-11-20T06:25:32;1.70;99.90
5172;DHT22;2605;49.770;9.868;2022-11-20T06:27:57;1.70;99.90
5172;DHT22;2605;49.770;9.868;2022-11-20T06:30:23;1.70;99.90
5172;DHT22;2605;49.770;9.868;2022-11-20T06:32:48;1.70;99.90
5172;DHT22;2605;49.770;9.868;2022-11-20T06:35:14;1.70;99.90
5172;DHT22;2605;49.770;9.868;2022-11-20T06:37:39;1.80;99.90
5172;DHT22;2605;49.770;9.868;2022-11-20T06:40:05;1.80;99.90
5172;DHT22;2605;49.770;9.868;2022-11-20T06:42:32;1.80;99.90
5172;DHT22;2605;49.770;9.868;2022-11-20T06:44:57;1.80;99.90
5172;DHT22;2605;49.770;9.868;2022-11-20T06:47:23;1.80;99.90
5172;DHT22;2605;49.770;9.868;2022-11-20T06:49:48;1.80;99.90
5172;DHT22;2605;49.770;9.868;2022-11-20T06:52:14;1.80;99.90
5172;DHT22;2605;49.770;9.868;2022-11-20T06:54:39;1.80;99.90
5172;DHT22;2605;49.770;9.868;2022-11-20T06:57:05;1.90;99.90
5172;DHT22;2605;49.770;9.868;2022-11-20T06:59:30;1.90;99.90
5172;DHT22;2605;49.770;9.868;2022-11-20T07:01:56;2.00;99.90
5172;DHT22;2605;49.770;9.868;2022-11-20T07:04:21;1.90;99.90
5172;DHT22;2605;49.770;9.868;2022-11-20T07:06:48;2.00;99.90
5172;DHT22;2605;49.770;9.868;2022-11-20T07:09:13;2.00;99.90
5172;DHT22;2605;49.770;9.868;2022-11-20T07:11:39;2.10;99.90
5172;DHT22;2605;49.770;9.868;2022-11-20T07:14:04;2.10;99.90
5172;DHT22;2605;49.770;9.868;2022-11-20T07:16:30;2.20;99.90
5172;DHT22;2605;49.770;9.868;2022-11-20T07:18:55;2.20;99.90
5172;DHT22;2605;49.770;9.868;2022-11-20T07:21:21;2.30;99.90
5172;DHT22;2605;49.770;9.868;2022-11-20T07:23:47;2.30;99.90
5172;DHT22;2605;49.770;9.868;2022-11-20T07:26:12;2.30;99.90
5172;DHT22;2605;49.770;9.868;2022-11-20T07:28:38;2.30;99.90
5172;DHT22;2605;49.770;9.868;2022-11-20T07:31:04;2.30;99.90
5172;DHT22;2605;49.770;9.868;2022-11-20T07:33:30;2.30;99.90
5172;DHT22;2605;49.770;9.868;2022-11-20T07:35:57;2.40;99.90
5172;DHT22;2605;49.770;9.868;2022-11-20T07:38:23;2.50;99.90
5172;DHT22;2605;49.770;9.868;2022-11-20T07:40:52;2.60;99.90
5172;DHT22;2605;49.770;9.868;2022-11-20T07:43:18;2.60;99.90
5172;DHT22;2605;49.770;9.868;2022-11-20T07:45:43;2.70;99.90
5172;DHT22;2605;49.770;9.868;2022-11-20T07:48:09;2.60;99.90
5172;DHT22;2605;49.770;9.868;2022-11-20T07:50:34;2.60;99.90
5172;DHT22;2605;49.770;9.868;2022-11-20T07:53:04;2.60;99.90
5172;DHT22;2605;49.770;9.868;2022-11-20T07:55:30;2.60;99.90
5172;DHT22;2605;49.770;9.868;2022-11-20T07:57:56;2.80;99.90
5172;DHT22;2605;49.770;9.868;2022-11-20T08:00:22;2.80;99.90
5172;DHT22;2605;49.770;9.868;2022-11-20T08:02:48;2.80;99.90
5172;DHT22;2605;49.770;9.868;2022-11-20T08:05:14;2.70;99.90
5172;DHT22;2605;49.770;9.868;2022-11-20T08:07:41;2.70;99.90
5172;DHT22;2605;49.770;9.868;2022-11-20T08:10:09;2.40;99.90
5172;DHT22;2605;49.770;9.868;2022-11-20T08:12:35;2.20;99.90
5172;DHT22;2605;49.770;9.868;2022-11-20T08:15:20;2.10;99.90
5172;DHT22;2605;49.770;9.868;2022-11-20T08:17:45;2.10;99.90
5172;DHT22;2605;49.770;9.868;2022-11-20T08:20:11;2.00;99.90
5172;DHT22;2605;49.770;9.868;2022-11-20T08:22:36;2.00;99.90
5172;DHT22;2605;49.770;9.868;2022-11-20T08:25:02;1.90;99.90
5172;DHT22;2605;49.770;9.868;2022-11-20T08:27:28;2.10;99.90
5172;DHT22;2605;49.770;9.868;2022-11-20T08:29:53;2.30;99.90
5172;DHT22;2605;49.770;9.868;2022-11-20T08:32:19;2.40;99.90
5172;DHT22;2605;49.770;9.868;2022-11-20T08:34:44;2.60;99.90
5172;DHT22;2605;49.770;9.868;2022-11-20T08:37:10;2.70;99.90
5172;DHT22;2605;49.770;9.868;2022-11-20T08:39:35;2.80;99.90
5172;DHT22;2605;49.770;9.868;2022-11-20T08:42:01;2.90;99.90
5172;DHT22;2605;49.770;9.868;2022-11-20T08:44:26;3.00;99.90
5172;DHT22;2605;49.770;9.868;2022-11-20T08:46:52;3.20;99.90
5172;DHT22;2605;49.770;9.868;2022-11-20T08:49:17;3.20;99.90
5172;DHT22;2605;49.770;9.868;2022-11-20T08:51:43;3.40;99.90
5172;DHT22;2605;49.770;9.868;2022-11-20T08:54:09;3.30;99.90
5172;DHT22;2605;49.770;9.868;2022-11-20T08:56:35;3.40;99.90
5172;DHT22;2605;49.770;9.868;2022-11-20T08:59:01;3.50;99.90
5172;DHT22;2605;49.770;9.868;2022-11-20T09:01:27;3.60;99.90
5172;DHT22;2605;49.770;9.868;2022-11-20T09:03:55;3.50;99.90
5172;DHT22;2605;49.770;9.868;2022-11-20T09:06:21;3.70;99.90
5172;DHT22;2605;49.770;9.868;2022-11-20T09:08:47;3.80;99.90
5172;DHT22;2605;49.770;9.868;2022-11-20T09:11:16;4.00;99.90
5172;DHT22;2605;49.770;9.868;2022-11-20T09:13:41;4.00;99.90
5172;DHT22;2605;49.770;9.868;2022-11-20T09:16:08;3.90;99.90
5172;DHT22;2605;49.770;9.868;2022-11-20T09:18:35;3.80;99.90
5172;DHT22;2605;49.770;9.868;2022-11-20T09:21:08;3.80;99.90
5172;DHT22;2605;49.770;9.868;2022-11-20T09:23:36;3.90;99.90
5172;DHT22;2605;49.770;9.868;2022-11-20T09:26:10;3.90;99.90
5172;DHT22;2605;49.770;9.868;2022-11-20T09:28:35;3.80;99.90
5172;DHT22;2605;49.770;9.868;2022-11-20T09:31:08;3.70;99.90
5172;DHT22;2605;49.770;9.868;2022-11-20T09:33:35;3.80;99.90
5172;DHT22;2605;49.770;9.868;2022-11-20T09:36:01;3.70;99.90
5172;DHT22;2605;49.770;9.868;2022-11-20T09:38:26;3.10;99.90
5172;DHT22;2605;49.770;9.868;2022-11-20T09:40:58;2.80;99.90
5172;DHT22;2605;49.770;9.868;2022-11-20T09:47:05;2.30;99.90
5172;DHT22;2605;49.770;9.868;2022-11-20T09:51:50;1.90;99.90
5172;DHT22;2605;49.770;9.868;2022-11-20T09:54:25;1.90;99.90
5172;DHT22;2605;49.770;9.868;2022-11-20T09:56:56;1.80;99.90
5172;DHT22;2605;49.770;9.868;2022-11-20T09:59:36;1.80;99.90
5172;DHT22;2605;49.770;9.868;2022-11-20T10:04:49;1.90;99.90
5172;DHT22;2605;49.770;9.868;2022-11-20T10:07:23;2.00;99.90
5172;DHT22;2605;49.770;9.868;2022-11-20T10:09:55;2.20;99.90
5172;DHT22;2605;49.770;9.868;2022-11-20T10:20:46;3.50;99.90
5172;DHT22;2605;49.770;9.868;2022-11-20T10:23:25;3.70;99.90
5172;DHT22;2605;49.770;9.868;2022-11-20T10:26:17;3.80;99.90
5172;DHT22;2605;49.770;9.868;2022-11-20T10:29:01;4.30;99.90
5172;DHT22;2605;49.770;9.868;2022-11-20T10:31:31;4.60;99.90
5172;DHT22;2605;49.770;9.868;2022-11-20T10:34:01;4.50;99.90
5172;DHT22;2605;49.770;9.868;2022-11-20T10:36:34;4.30;99.90
5172;DHT22;2605;49.770;9.868;2022-11-20T10:39:40;4.00;99.90
5172;DHT22;2605;49.770;9.868;2022-11-20T10:41:57;3.90;99.90
5172;DHT22;2605;49.770;9.868;2022-11-20T10:44:28;3.70;99.90
5172;DHT22;2605;49.770;9.868;2022-11-20T10:47:17;3.60;99.90
5172;DHT22;2605;49.770;9.868;2022-11-20T10:49:51;3.40;99.90
5172;DHT22;2605;49.770;9.868;2022-11-20T10:52:20;3.70;99.90
5172;DHT22;2605;49.770;9.868;2022-11-20T10:54:59;3.80;99.90
5172;DHT22;2605;49.770;9.868;2022-11-20T10:58:00;3.50;99.90
5172;DHT22;2605;49.770;9.868;2022-11-20T11:00:30;3.50;99.90
5172;DHT22;2605;49.770;9.868;2022-11-20T11:02:55;3.50;99.90
5172;DHT22;2605;49.770;9.868;2022-11-20T11:05:44;3.60;99.90
5172;DHT22;2605;49.770;9.868;2022-11-20T11:08:18;3.60;99.90
5172;DHT22;2605;49.770;9.868;2022-11-20T11:13:27;3.40;99.90
5172;DHT22;2605;49.770;9.868;2022-11-20T11:15:53;3.30;99.90
5172;DHT22;2605;49.770;9.868;2022-11-20T11:18:30;3.10;99.90
5172;DHT22;2605;49.770;9.868;2022-11-20T11:20:58;3.10;99.90
5172;DHT22;2605;49.770;9.868;2022-11-20T11:23:34;3.10;99.90
5172;DHT22;2605;49.770;9.868;2022-11-20T11:26:03;3.00;99.90
5172;DHT22;2605;49.770;9.868;2022-11-20T11:28:30;3.10;99.90
5172;DHT22;2605;49.770;9.868;2022-11-20T11:30:56;3.10;99.90
5172;DHT22;2605;49.770;9.868;2022-11-20T11:33:27;3.30;99.90
5172;DHT22;2605;49.770;9.868;2022-11-20T11:35:59;3.20;99.90
5172;DHT22;2605;49.770;9.868;2022-11-20T11:38:34;3.20;99.90
5172;DHT22;2605;49.770;9.868;2022-11-20T11:41:00;3.30;99.90
5172;DHT22;2605;49.770;9.868;2022-11-20T11:43:30;3.30;99.90
5172;DHT22;2605;49.770;9.868;2022-11-20T11:46:28;3.20;99.90
5172;DHT22;2605;49.770;9.868;2022-11-20T11:51:46;3.00;99.90
5172;DHT22;2605;49.770;9.868;2022-11-20T11:54:37;2.90;99.90
5172;DHT22;2605;49.770;9.868;2022-11-20T12:00:06;2.90;99.90
5172;DHT22;2605;49.770;9.868;2022-11-20T12:02:37;2.80;99.90
5172;DHT22;2605;49.770;9.868;2022-11-20T12:05:26;2.90;99.90
5172;DHT22;2605;49.770;9.868;2022-11-20T12:08:05;2.90;99.90
5172;DHT22;2605;49.770;9.868;2022-11-20T12:10:52;2.80;99.90
5172;DHT22;2605;49.770;9.868;2022-11-20T12:16:00;2.80;99.90
5172;DHT22;2605;49.770;9.868;2022-11-20T12:18:27;2.80;99.90
5172;DHT22;2605;49.770;9.868;2022-11-20T12:26:39;2.80;99.90
5172;DHT22;2605;49.770;9.868;2022-11-20T12:29:18;2.80;99.90
5172;DHT22;2605;49.770;9.868;2022-11-20T12:34:34;2.90;99.90
5172;DHT22;2605;49.770;9.868;2022-11-20T12:39:58;3.00;99.90
5172;DHT22;2605;49.770;9.868;2022-11-20T12:42:36;3.10;99.90
5172;DHT22;2605;49.770;9.868;2022-11-20T12:53:23;3.20;99.90
5172;DHT22;2605;49.770;9.868;2022-11-20T12:56:00;3.20;99.90
5172;DHT22;2605;49.770;9.868;2022-11-20T12:58:35;3.20;99.90
5172;DHT22;2605;49.770;9.868;2022-11-20T13:01:30;3.20;99.90
5172;DHT22;2605;49.770;9.868;2022-11-20T13:07:03;3.30;99.90
5172;DHT22;2605;49.770;9.868;2022-11-20T13:09:30;3.20;99.90
5172;DHT22;2605;49.770;9.868;2022-11-20T13:12:23;3.30;99.90
5172;DHT22;2605;49.770;9.868;2022-11-20T13:17:42;3.30;99.90
5172;DHT22;2605;49.770;9.868;2022-11-20T13:20:16;3.30;99.90
5172;DHT22;2605;49.770;9.868;2022-11-20T13:22:53;3.30;99.90
5172;DHT22;2605;49.770;9.868;2022-11-20T13:25:30;3.30;99.90
5172;DHT22;2605;49.770;9.868;2022-11-20T13:28:04;3.30;99.90
5172;DHT22;2605;49.770;9.868;2022-11-20T13:30:31;3.30;99.90
5172;DHT22;2605;49.770;9.868;2022-11-20T13:33:09;3.40;99.90
5172;DHT22;2605;49.770;9.868;2022-11-20T13:36:02;3.40;99.90
5172;DHT22;2605;49.770;9.868;2022-11-20T13:38:39;3.50;99.90
5172;DHT22;2605;49.770;9.868;2022-11-20T13:41:08;3.70;99.90
5172;DHT22;2605;49.770;9.868;2022-11-20T13:43:52;3.90;99.90
5172;DHT22;2605;49.770;9.868;2022-11-20T13:46:18;4.10;99.90
5172;DHT22;2605;49.770;9.868;2022-11-20T13:48:50;4.00;99.90
5172;DHT22;2605;49.770;9.868;2022-11-20T13:59:43;3.60;99.90
5172;DHT22;2605;49.770;9.868;2022-11-20T14:02:16;3.60;99.90
5172;DHT22;2605;49.770;9.868;2022-11-20T14:04:45;3.70;99.90
5172;DHT22;2605;49.770;9.868;2022-11-20T14:07:12;3.80;99.90
5172;DHT22;2605;49.770;9.868;2022-11-20T14:09:38;3.80;99.90
5172;DHT22;2605;49.770;9.868;2022-11-20T14:12:12;3.70;99.90
5172;DHT22;2605;49.770;9.868;2022-11-20T14:14:51;3.70;99.90
5172;DHT22;2605;49.770;9.868;2022-11-20T14:17:32;3.70;99.90
5172;DHT22;2605;49.770;9.868;2022-11-20T14:20:02;3.70;99.90
5172;DHT22;2605;49.770;9.868;2022-11-20T14:22:29;3.60;99.90
5172;DHT22;2605;49.770;9.868;2022-11-20T14:25:27;3.60;99.90
5172;DHT22;2605;49.770;9.868;2022-11-20T14:27:57;3.80;99.90
5172;DHT22;2605;49.770;9.868;2022-11-20T14:30:28;3.60;99.90
5172;DHT22;2605;49.770;9.868;2022-11-20T14:33:02;3.60;99.90
5172;DHT22;2605;49.770;9.868;2022-11-20T14:35:31;3.60;99.90
5172;DHT22;2605;49.770;9.868;2022-11-20T14:37:57;3.70;99.90
5172;DHT22;2605;49.770;9.868;2022-11-20T14:40:31;3.80;99.90
5172;DHT22;2605;49.770;9.868;2022-11-20T14:42:58;3.80;99.90
5172;DHT22;2605;49.770;9.868;2022-11-20T14:45:25;3.90;99.90
5172;DHT22;2605;49.770;9.868;2022-11-20T14:47:53;4.00;99.90
5172;DHT22;2605;49.770;9.868;2022-11-20T14:50:26;4.00;99.90
5172;DHT22;2605;49.770;9.868;2022-11-20T14:53:01;4.00;99.90
5172;DHT22;2605;49.770;9.868;2022-11-20T14:55:29;4.10;99.90
5172;DHT22;2605;49.770;9.868;2022-11-20T14:57:56;4.00;99.90
5172;DHT22;2605;49.770;9.868;2022-11-20T15:00:22;4.00;99.90
5172;DHT22;2605;49.770;9.868;2022-11-20T15:02:50;3.90;99.90
5172;DHT22;2605;49.770;9.868;2022-11-20T15:05:17;3.90;99.90
5172;DHT22;2605;49.770;9.868;2022-11-20T15:07:46;3.90;99.90
5172;DHT22;2605;49.770;9.868;2022-11-20T15:10:20;4.00;99.90
5172;DHT22;2605;49.770;9.868;2022-11-20T15:12:59;4.00;99.90
5172;DHT22;2605;49.770;9.868;2022-11-20T15:15:47;4.10;99.90
5172;DHT22;2605;49.770;9.868;2022-11-20T15:18:15;4.10;99.90
5172;DHT22;2605;49.770;9.868;2022-11-20T15:20:42;4.10;99.90
5172;DHT22;2605;49.770;9.868;2022-11-20T15:23:13;4.10;99.90
5172;DHT22;2605;49.770;9.868;2022-11-20T15:25:40;4.10;99.90
5172;DHT22;2605;49.770;9.868;2022-11-20T15:30:46;4.20;99.90
5172;DHT22;2605;49.770;9.868;2022-11-20T15:33:11;4.20;99.90
5172;DHT22;2605;49.770;9.868;2022-11-20T15:35:37;4.20;99.90
5172;DHT22;2605;49.770;9.868;2022-11-20T15:38:03;4.10;99.90
5172;DHT22;2605;49.770;9.868;2022-11-20T15:40:29;4.10;99.90
5172;DHT22;2605;49.770;9.868;2022-11-20T15:42:54;4.10;99.90
5172;DHT22;2605;49.770;9.868;2022-11-20T15:45:40;4.10;99.90
5172;DHT22;2605;49.770;9.868;2022-11-20T15:48:36;4.10;99.90
5172;DHT22;2605;49.770;9.868;2022-11-20T15:51:24;4.00;99.90
5172;DHT22;2605;49.770;9.868;2022-11-20T15:53:50;4.00;99.90
5172;DHT22;2605;49.770;9.868;2022-11-20T15:56:16;4.00;99.90
5172;DHT22;2605;49.770;9.868;2022-11-20T15:58:41;4.00;99.90
5172;DHT22;2605;49.770;9.868;2022-11-20T16:01:15;4.00;99.90
5172;DHT22;2605;49.770;9.868;2022-11-20T16:03:41;4.00;99.90
5172;DHT22;2605;49.770;9.868;2022-11-20T16:06:07;4.00;99.90
5172;DHT22;2605;49.770;9.868;2022-11-20T16:08:33;4.00;99.90
5172;DHT22;2605;49.770;9.868;2022-11-20T16:10:59;4.00;99.90
5172;DHT22;2605;49.770;9.868;2022-11-20T16:13:24;4.00;99.90
5172;DHT22;2605;49.770;9.868;2022-11-20T16:16:21;3.90;99.90
5172;DHT22;2605;49.770;9.868;2022-11-20T16:18:48;4.00;99.90
5172;DHT22;2605;49.770;9.868;2022-11-20T16:21:14;3.90;99.90
5172;DHT22;2605;49.770;9.868;2022-11-20T16:23:40;3.90;99.90
5172;DHT22;2605;49.770;9.868;2022-11-20T16:26:16;3.80;99.90
5172;DHT22;2605;49.770;9.868;2022-11-20T16:28:42;3.80;99.90
5172;DHT22;2605;49.770;9.868;2022-11-20T16:31:13;3.90;99.90
5172;DHT22;2605;49.770;9.868;2022-11-20T16:33:39;3.80;99.90
5172;DHT22;2605;49.770;9.868;2022-11-20T16:36:09;3.80;99.90
5172;DHT22;2605;49.770;9.868;2022-11-20T16:38:35;3.70;99.90
5172;DHT22;2605;49.770;9.868;2022-11-20T16:41:01;3.80;99.90
5172;DHT22;2605;49.770;9.868;2022-11-20T16:43:27;3.80;99.90
5172;DHT22;2605;49.770;9.868;2022-11-20T16:45:52;3.80;99.90
5172;DHT22;2605;49.770;9.868;2022-11-20T16:48:18;3.70;99.90
5172;DHT22;2605;49.770;9.868;2022-11-20T16:50:52;3.70;99.90
5172;DHT22;2605;49.770;9.868;2022-11-20T16:53:19;3.70;99.90
5172;DHT22;2605;49.770;9.868;2022-11-20T16:55:45;3.80;99.90
5172;DHT22;2605;49.770;9.868;2022-11-20T16:58:11;3.70;99.90
5172;DHT22;2605;49.770;9.868;2022-11-20T17:00:40;3.70;99.90
5172;DHT22;2605;49.770;9.868;2022-11-20T17:03:06;3.70;99.90
5172;DHT22;2605;49.770;9.868;2022-11-20T17:05:32;3.60;99.90
5172;DHT22;2605;49.770;9.868;2022-11-20T17:07:59;3.50;99.90
5172;DHT22;2605;49.770;9.868;2022-11-20T17:10:24;3.60;99.90
5172;DHT22;2605;49.770;9.868;2022-11-20T17:12:50;3.60;99.90
5172;DHT22;2605;49.770;9.868;2022-11-20T17:15:16;3.60;99.90
5172;DHT22;2605;49.770;9.868;2022-11-20T17:17:41;3.60;99.90
5172;DHT22;2605;49.770;9.868;2022-11-20T17:20:07;3.70;99.90
5172;DHT22;2605;49.770;9.868;2022-11-20T17:22:33;3.70;99.90
5172;DHT22;2605;49.770;9.868;2022-11-20T17:24:58;3.80;99.90
5172;DHT22;2605;49.770;9.868;2022-11-20T17:27:24;3.90;99.90
5172;DHT22;2605;49.770;9.868;2022-11-20T17:29:51;3.90;99.90
5172;DHT22;2605;49.770;9.868;2022-11-20T17:32:19;3.90;99.90
5172;DHT22;2605;49.770;9.868;2022-11-20T17:34:44;4.00;99.90